createdAt,value
2022-10-18T00:00:09.605Z,69.01
2022-10-18T00:00:19.880Z,69.01
2022-10-18T00:00:30.148Z,69.01
2022-10-18T00:00:40.420Z,69.01
2022-10-18T00:00:50.791Z,69.01
2022-10-18T00:01:01.043Z,69.01
2022-10-18T00:01:11.307Z,69.01
2022-10-18T00:01:21.586Z,69.01
2022-10-18T00:01:31.873Z,69.01
2022-10-18T00:01:42.183Z,69.01
2022-10-18T00:01:52.501Z,69.01
2022-10-18T00:02:02.940Z,69.01
2022-10-18T00:02:13.210Z,69.01
2022-10-18T00:02:23.570Z,69.01
2022-10-18T00:02:34.054Z,69.01
2022-10-18T00:02:44.136Z,69.01
2022-10-18T00:02:54.412Z,69.11
2022-10-18T00:03:04.681Z,69.11
2022-10-18T00:03:14.961Z,69.11
2022-10-18T00:03:25.222Z,69.11
2022-10-18T00:03:35.563Z,69.11
2022-10-18T00:03:45.879Z,69.11
2022-10-18T00:03:56.125Z,69.11
2022-10-18T00:04:06.416Z,69.21
2022-10-18T00:04:16.701Z,69.21
2022-10-18T00:04:26.943Z,69.11
2022-10-18T00:04:37.217Z,69.11
2022-10-18T00:04:47.518Z,69.11
2022-10-18T00:04:57.756Z,69.11
2022-10-18T00:05:08.032Z,69.11
2022-10-18T00:05:18.303Z,69.11
2022-10-18T00:05:28.568Z,69.01
2022-10-18T00:05:38.843Z,69.01
2022-10-18T00:05:49.139Z,69.01
2022-10-18T00:05:59.412Z,69.01
2022-10-18T00:06:09.682Z,69.01
2022-10-18T00:06:19.952Z,69.01
2022-10-18T00:06:30.224Z,69.01
2022-10-18T00:06:43.448Z,69.01
2022-10-18T00:06:50.906Z,69.01
2022-10-18T00:07:01.192Z,69.01
2022-10-18T00:07:11.447Z,69.01
2022-10-18T00:07:21.718Z,69.01
2022-10-18T00:07:32.298Z,69.01
2022-10-18T00:07:42.284Z,69.01
2022-10-18T00:07:52.549Z,69.01
2022-10-18T00:08:02.823Z,69.11
2022-10-18T00:08:13.099Z,69.11
2022-10-18T00:08:23.369Z,69.01
2022-10-18T00:08:33.639Z,69.01
2022-10-18T00:08:43.902Z,69.01
2022-10-18T00:08:54.176Z,69.01
2022-10-18T00:09:04.438Z,69.01
2022-10-18T00:09:14.710Z,69.01
2022-10-18T00:09:24.992Z,69.01
2022-10-18T00:09:35.263Z,69.01
2022-10-18T00:09:45.540Z,69.01
2022-10-18T00:09:55.816Z,69.01
2022-10-18T00:10:06.086Z,69.11
2022-10-18T00:10:16.349Z,69.11
2022-10-18T00:10:26.621Z,69.11
2022-10-18T00:10:36.889Z,69.11
2022-10-18T00:10:47.172Z,69.11
2022-10-18T00:10:57.447Z,69.11
2022-10-18T00:11:07.724Z,69.21
2022-10-18T00:11:17.980Z,69.11
2022-10-18T00:11:28.273Z,69.11
2022-10-18T00:11:38.520Z,69.11
2022-10-18T00:11:48.793Z,69.11
2022-10-18T00:11:59.065Z,69.01
2022-10-18T00:12:09.346Z,69.01
2022-10-18T00:12:19.621Z,69.01
2022-10-18T00:12:29.891Z,69.01
2022-10-18T00:12:40.226Z,69.01
2022-10-18T00:12:50.581Z,69.01
2022-10-18T00:13:00.809Z,69.01
2022-10-18T00:13:11.086Z,69.11
2022-10-18T00:13:21.403Z,69.11
2022-10-18T00:13:31.642Z,69.11
2022-10-18T00:13:41.926Z,69.11
2022-10-18T00:13:52.187Z,69.11
2022-10-18T00:14:02.470Z,69.11
2022-10-18T00:14:12.737Z,69.11
2022-10-18T00:14:22.995Z,69.11
2022-10-18T00:14:33.276Z,69.11
2022-10-18T00:14:43.542Z,69.11
2022-10-18T00:14:53.819Z,69.11
2022-10-18T00:15:04.094Z,69.11
2022-10-18T00:15:14.370Z,69.11
2022-10-18T00:15:24.634Z,69.11
2022-10-18T00:15:34.908Z,69.11
2022-10-18T00:15:45.174Z,69.11
2022-10-18T00:15:55.468Z,69.21
2022-10-18T00:16:05.746Z,69.21
2022-10-18T00:16:16.030Z,69.11
2022-10-18T00:16:26.294Z,69.21
2022-10-18T00:16:36.562Z,69.11
2022-10-18T00:16:46.829Z,69.11
2022-10-18T00:16:57.104Z,69.21
2022-10-18T00:17:07.380Z,69.21
2022-10-18T00:17:17.653Z,69.21
2022-10-18T00:17:28.097Z,69.21
2022-10-18T00:17:38.255Z,69.21
2022-10-18T00:17:48.553Z,69.21
2022-10-18T00:17:58.802Z,69.21
2022-10-18T00:18:09.100Z,69.21
2022-10-18T00:18:19.356Z,69.21
2022-10-18T00:18:29.625Z,69.21
2022-10-18T00:18:39.895Z,69.21
2022-10-18T00:18:50.187Z,69.21
2022-10-18T00:19:00.442Z,69.21
2022-10-18T00:19:10.734Z,69.21
2022-10-18T00:19:23.667Z,69.21
2022-10-18T00:19:31.359Z,69.21
2022-10-18T00:19:41.624Z,69.21
2022-10-18T00:19:51.894Z,69.21
2022-10-18T00:20:02.162Z,69.21
2022-10-18T00:20:12.431Z,69.21
2022-10-18T00:20:22.691Z,69.21
2022-10-18T00:20:32.961Z,69.21
2022-10-18T00:20:43.246Z,69.21
2022-10-18T00:20:53.538Z,69.21
2022-10-18T00:21:03.800Z,69.31
2022-10-18T00:21:14.085Z,69.31
2022-10-18T00:21:24.377Z,69.31
2022-10-18T00:21:34.747Z,69.31
2022-10-18T00:21:55.089Z,69.31
2022-10-18T00:22:05.391Z,69.31
2022-10-18T00:22:15.651Z,69.31
2022-10-18T00:22:25.939Z,69.31
2022-10-18T00:22:36.199Z,69.31
2022-10-18T00:22:46.484Z,69.31
2022-10-18T00:22:56.741Z,69.31
2022-10-18T00:23:07.014Z,69.31
2022-10-18T00:23:17.287Z,69.31
2022-10-18T00:23:27.545Z,69.31
2022-10-18T00:23:37.805Z,69.42
2022-10-18T00:23:48.083Z,69.42
2022-10-18T00:23:58.350Z,69.42
2022-10-18T00:24:08.617Z,69.42
2022-10-18T00:24:18.892Z,69.42
2022-10-18T00:24:29.164Z,69.51
2022-10-18T00:24:39.436Z,69.62
2022-10-18T00:24:49.710Z,69.62
2022-10-18T00:24:59.980Z,69.62
2022-10-18T00:25:10.257Z,69.62
2022-10-18T00:25:20.531Z,69.62
2022-10-18T00:25:30.799Z,69.62
2022-10-18T00:25:41.087Z,69.71
2022-10-18T00:25:51.366Z,69.71
2022-10-18T00:26:01.632Z,69.71
2022-10-18T00:26:11.913Z,69.71
2022-10-18T00:26:22.176Z,69.71
2022-10-18T00:26:32.447Z,69.71
2022-10-18T00:26:42.720Z,69.71
2022-10-18T00:26:53.001Z,69.71
2022-10-18T00:27:03.266Z,69.71
2022-10-18T00:27:13.545Z,69.71
2022-10-18T00:27:23.814Z,69.71
2022-10-18T00:27:34.089Z,69.71
2022-10-18T00:27:44.354Z,69.71
2022-10-18T00:27:54.640Z,69.71
2022-10-18T00:28:04.895Z,69.71
2022-10-18T00:28:15.171Z,69.71
2022-10-18T00:28:25.496Z,69.71
2022-10-18T00:28:35.873Z,69.71
2022-10-18T00:28:46.148Z,69.71
2022-10-18T00:28:56.435Z,69.82
2022-10-18T00:29:06.678Z,69.82
2022-10-18T00:29:16.959Z,69.82
2022-10-18T00:29:27.249Z,69.82
2022-10-18T00:29:37.538Z,69.92
2022-10-18T00:29:47.810Z,69.92
2022-10-18T00:29:58.057Z,69.82
2022-10-18T00:30:08.328Z,69.82
2022-10-18T00:30:18.608Z,69.82
2022-10-18T00:30:28.898Z,69.82
2022-10-18T00:30:39.246Z,69.92
2022-10-18T00:30:59.862Z,69.82
2022-10-18T00:31:10.113Z,69.82
2022-10-18T00:31:20.399Z,69.82
2022-10-18T00:31:30.666Z,69.82
2022-10-18T00:31:40.956Z,69.82
2022-10-18T00:31:51.218Z,69.82
2022-10-18T00:32:01.517Z,69.82
2022-10-18T00:32:11.764Z,69.82
2022-10-18T00:32:22.052Z,69.82
2022-10-18T00:32:32.882Z,69.82
2022-10-18T00:32:42.633Z,69.82
2022-10-18T00:32:52.903Z,69.82
2022-10-18T00:33:03.169Z,69.82
2022-10-18T00:33:13.441Z,69.82
2022-10-18T00:33:23.711Z,69.92
2022-10-18T00:33:33.999Z,69.92
2022-10-18T00:33:44.261Z,69.92
2022-10-18T00:33:54.532Z,69.92
2022-10-18T00:34:04.803Z,69.92
2022-10-18T00:34:15.104Z,69.92
2022-10-18T00:34:25.347Z,70.02
2022-10-18T00:34:35.616Z,70.02
2022-10-18T00:34:45.872Z,70.02
2022-10-18T00:34:56.133Z,70.02
2022-10-18T00:35:06.408Z,70.02
2022-10-18T00:35:16.671Z,70.02
2022-10-18T00:35:26.952Z,70.02
2022-10-18T00:35:37.239Z,70.02
2022-10-18T00:35:47.512Z,70.02
2022-10-18T00:35:57.782Z,69.92
2022-10-18T00:36:08.047Z,69.82
2022-10-18T00:36:18.317Z,69.82
2022-10-18T00:36:28.588Z,69.82
2022-10-18T00:36:38.858Z,69.82
2022-10-18T00:36:49.141Z,69.82
2022-10-18T00:36:59.425Z,69.82
2022-10-18T00:37:09.679Z,69.82
2022-10-18T00:37:19.964Z,69.82
2022-10-18T00:37:30.211Z,69.82
2022-10-18T00:37:40.506Z,69.71
2022-10-18T00:37:50.796Z,69.71
2022-10-18T00:38:01.039Z,69.71
2022-10-18T00:38:11.298Z,69.71
2022-10-18T00:38:21.561Z,69.65
2022-10-18T00:38:31.837Z,69.62
2022-10-18T00:38:42.122Z,69.65
2022-10-18T00:38:52.375Z,69.62
2022-10-18T00:39:02.648Z,69.65
2022-10-18T00:39:12.913Z,69.55
2022-10-18T00:39:23.192Z,69.51
2022-10-18T00:39:33.459Z,69.55
2022-10-18T00:39:43.790Z,69.55
2022-10-18T00:39:54.047Z,69.51
2022-10-18T00:40:04.336Z,69.55
2022-10-18T00:40:14.583Z,69.55
2022-10-18T00:40:24.883Z,69.62
2022-10-18T00:40:35.140Z,69.62
2022-10-18T00:40:45.427Z,69.62
2022-10-18T00:40:55.720Z,69.65
2022-10-18T00:41:06.029Z,69.65
2022-10-18T00:41:16.275Z,69.65
2022-10-18T00:41:26.558Z,69.75
2022-10-18T00:41:36.822Z,69.75
2022-10-18T00:41:47.088Z,69.75
2022-10-18T00:41:57.362Z,69.75
2022-10-18T00:42:07.633Z,69.65
2022-10-18T00:42:17.899Z,69.65
2022-10-18T00:42:28.350Z,69.55
2022-10-18T00:42:38.503Z,69.55
2022-10-18T00:42:48.784Z,69.55
2022-10-18T00:42:59.058Z,69.55
2022-10-18T00:43:09.327Z,69.45
2022-10-18T00:43:19.623Z,69.55
2022-10-18T00:43:29.895Z,69.45
2022-10-18T00:43:40.149Z,69.45
2022-10-18T00:43:50.423Z,69.45
2022-10-18T00:44:00.688Z,69.45
2022-10-18T00:44:10.956Z,69.45
2022-10-18T00:44:21.224Z,69.45
2022-10-18T00:44:31.495Z,69.45
2022-10-18T00:44:41.768Z,69.45
2022-10-18T00:44:52.036Z,69.45
2022-10-18T00:45:02.323Z,69.45
2022-10-18T00:45:12.587Z,69.45
2022-10-18T00:45:22.857Z,69.45
2022-10-18T00:45:33.160Z,69.55
2022-10-18T00:45:43.397Z,69.55
2022-10-18T00:45:53.666Z,69.55
2022-10-18T00:46:03.934Z,69.55
2022-10-18T00:46:14.219Z,69.55
2022-10-18T00:46:24.486Z,69.55
2022-10-18T00:46:34.768Z,69.55
2022-10-18T00:46:45.050Z,69.45
2022-10-18T00:46:55.309Z,69.45
2022-10-18T00:47:05.592Z,69.45
2022-10-18T00:47:15.851Z,69.45
2022-10-18T00:47:26.119Z,69.45
2022-10-18T00:47:36.397Z,69.45
2022-10-18T00:47:46.664Z,69.45
2022-10-18T00:47:56.935Z,69.45
2022-10-18T00:48:07.201Z,69.45
2022-10-18T00:48:17.483Z,69.45
2022-10-18T00:48:27.746Z,69.45
2022-10-18T00:48:38.011Z,69.45
2022-10-18T00:48:48.334Z,69.55
2022-10-18T00:48:58.619Z,69.45
2022-10-18T00:49:08.868Z,69.45
2022-10-18T00:49:19.144Z,69.45
2022-10-18T00:49:29.404Z,69.45
2022-10-18T00:49:39.674Z,69.45
2022-10-18T00:49:49.955Z,69.45
2022-10-18T00:50:00.217Z,69.45
2022-10-18T00:50:10.522Z,69.45
2022-10-18T00:50:20.757Z,69.45
2022-10-18T00:50:31.026Z,69.45
2022-10-18T00:50:41.297Z,69.45
2022-10-18T00:50:51.675Z,69.45
2022-10-18T00:51:01.948Z,69.45
2022-10-18T00:51:12.220Z,69.45
2022-10-18T00:51:22.496Z,69.45
2022-10-18T00:51:32.760Z,69.45
2022-10-18T00:51:43.043Z,69.45
2022-10-18T00:51:53.340Z,69.45
2022-10-18T00:52:03.587Z,69.45
2022-10-18T00:52:13.864Z,69.45
2022-10-18T00:52:24.129Z,69.45
2022-10-18T00:52:34.510Z,69.45
2022-10-18T00:52:44.757Z,69.45
2022-10-18T00:52:55.032Z,69.45
2022-10-18T00:53:05.312Z,69.45
2022-10-18T00:53:15.606Z,69.45
2022-10-18T00:53:25.861Z,69.45
2022-10-18T00:53:36.131Z,69.45
2022-10-18T00:53:46.415Z,69.45
2022-10-18T00:53:56.673Z,69.45
2022-10-18T00:54:06.958Z,69.45
2022-10-18T00:54:17.217Z,69.55
2022-10-18T00:54:27.492Z,69.55
2022-10-18T00:54:37.755Z,69.55
2022-10-18T00:54:48.026Z,69.55
2022-10-18T00:54:58.321Z,69.55
2022-10-18T00:55:08.579Z,69.45
2022-10-18T00:55:18.845Z,69.45
2022-10-18T00:55:29.130Z,69.45
2022-10-18T00:55:39.388Z,69.55
2022-10-18T00:55:49.672Z,69.55
2022-10-18T00:55:59.966Z,69.55
2022-10-18T00:56:10.221Z,69.55
2022-10-18T00:56:20.487Z,69.55
2022-10-18T00:56:30.758Z,69.55
2022-10-18T00:56:41.039Z,69.55
2022-10-18T00:56:51.305Z,69.55
2022-10-18T00:57:01.571Z,69.55
2022-10-18T00:57:11.848Z,69.65
2022-10-18T00:57:22.141Z,69.65
2022-10-18T00:57:32.397Z,69.75
2022-10-18T00:57:42.757Z,69.75
2022-10-18T00:57:56.059Z,69.75
2022-10-18T00:58:03.281Z,69.75
2022-10-18T00:58:13.548Z,69.75
2022-10-18T00:58:23.823Z,69.75
2022-10-18T00:58:34.108Z,69.75
2022-10-18T00:58:44.415Z,69.75
2022-10-18T00:58:54.686Z,69.75
2022-10-18T00:59:04.932Z,69.75
2022-10-18T00:59:15.201Z,69.75
2022-10-18T00:59:25.474Z,69.75
2022-10-18T00:59:35.746Z,69.75
2022-10-18T00:59:46.019Z,69.75
2022-10-18T00:59:56.291Z,69.65
2022-10-18T01:00:06.567Z,69.75
2022-10-18T01:00:16.830Z,69.75
2022-10-18T01:00:27.137Z,69.75
2022-10-18T01:00:37.382Z,69.75
2022-10-18T01:00:47.672Z,69.75
2022-10-18T01:00:57.953Z,69.75
2022-10-18T01:01:08.225Z,69.75
2022-10-18T01:01:18.535Z,69.75
2022-10-18T01:01:28.878Z,69.75
2022-10-18T01:01:39.183Z,69.75
2022-10-18T01:01:49.470Z,69.75
2022-10-18T01:01:59.863Z,69.75
2022-10-18T01:02:10.200Z,69.75
2022-10-18T01:02:20.520Z,69.75
2022-10-18T01:02:31.088Z,69.75
2022-10-18T01:02:41.049Z,69.75
2022-10-18T01:02:51.320Z,69.75
2022-10-18T01:03:01.598Z,69.85
2022-10-18T01:03:11.858Z,69.85
2022-10-18T01:03:22.158Z,69.85
2022-10-18T01:03:32.399Z,69.85
2022-10-18T01:03:42.677Z,69.85
2022-10-18T01:03:52.945Z,69.85
2022-10-18T01:04:03.211Z,69.85
2022-10-18T01:04:13.491Z,69.85
2022-10-18T01:04:23.757Z,69.85
2022-10-18T01:04:34.026Z,69.85
2022-10-18T01:04:44.299Z,69.85
2022-10-18T01:04:54.583Z,69.85
2022-10-18T01:05:04.863Z,69.85
2022-10-18T01:05:15.117Z,69.85
2022-10-18T01:05:25.389Z,69.95
2022-10-18T01:05:35.742Z,69.95
2022-10-18T01:05:45.971Z,69.95
2022-10-18T01:05:56.256Z,69.95
2022-10-18T01:06:06.527Z,69.95
2022-10-18T01:06:16.826Z,69.95
2022-10-18T01:06:27.099Z,69.95
2022-10-18T01:06:37.378Z,69.95
2022-10-18T01:06:47.677Z,69.95
2022-10-18T01:06:57.923Z,70.05
2022-10-18T01:07:08.219Z,70.05
2022-10-18T01:07:18.467Z,70.05
2022-10-18T01:07:29.123Z,70.05
2022-10-18T01:07:39.135Z,70.05
2022-10-18T01:07:49.390Z,70.15
2022-10-18T01:07:59.658Z,70.15
2022-10-18T01:08:09.947Z,70.15
2022-10-18T01:08:20.212Z,70.15
2022-10-18T01:08:30.495Z,70.15
2022-10-18T01:08:40.750Z,70.15
2022-10-18T01:08:51.036Z,70.15
2022-10-18T01:09:01.298Z,70.15
2022-10-18T01:09:11.582Z,70.15
2022-10-18T01:09:21.849Z,70.15
2022-10-18T01:09:32.125Z,70.05
2022-10-18T01:09:42.387Z,70.15
2022-10-18T01:09:52.672Z,70.15
2022-10-18T01:10:02.925Z,70.15
2022-10-18T01:10:13.213Z,70.15
2022-10-18T01:10:23.459Z,70.15
2022-10-18T01:10:33.731Z,70.15
2022-10-18T01:10:44.016Z,70.25
2022-10-18T01:10:54.270Z,70.25
2022-10-18T01:11:04.561Z,70.15
2022-10-18T01:11:14.829Z,70.15
2022-10-18T01:11:25.120Z,70.15
2022-10-18T01:11:35.371Z,70.15
2022-10-18T01:11:45.647Z,70.15
2022-10-18T01:11:55.913Z,70.15
2022-10-18T01:12:06.181Z,70.15
2022-10-18T01:12:16.451Z,70.15
2022-10-18T01:12:26.724Z,70.15
2022-10-18T01:12:36.991Z,70.15
2022-10-18T01:12:47.262Z,70.15
2022-10-18T01:12:57.522Z,70.15
2022-10-18T01:13:07.809Z,70.15
2022-10-18T01:13:20.916Z,70.05
2022-10-18T01:13:29.288Z,70.05
2022-10-18T01:13:38.709Z,70.05
2022-10-18T01:13:48.961Z,70.05
2022-10-18T01:13:59.218Z,70.05
2022-10-18T01:14:09.490Z,70.05
2022-10-18T01:14:19.769Z,70.05
2022-10-18T01:14:30.041Z,70.05
2022-10-18T01:14:40.327Z,70.05
2022-10-18T01:14:50.594Z,70.05
2022-10-18T01:15:00.876Z,70.05
2022-10-18T01:15:11.184Z,69.95
2022-10-18T01:15:21.425Z,69.95
2022-10-18T01:15:31.706Z,69.95
2022-10-18T01:15:41.969Z,70.05
2022-10-18T01:15:52.288Z,70.05
2022-10-18T01:16:02.547Z,69.95
2022-10-18T01:16:12.812Z,69.95
2022-10-18T01:16:23.091Z,69.95
2022-10-18T01:16:33.388Z,69.95
2022-10-18T01:16:43.634Z,69.95
2022-10-18T01:16:53.910Z,69.95
2022-10-18T01:17:04.179Z,69.95
2022-10-18T01:17:14.443Z,69.95
2022-10-18T01:17:24.724Z,69.95
2022-10-18T01:17:34.985Z,69.95
2022-10-18T01:17:45.280Z,70.05
2022-10-18T01:17:55.534Z,70.05
2022-10-18T01:18:05.830Z,70.05
2022-10-18T01:18:16.077Z,70.05
2022-10-18T01:18:26.338Z,70.05
2022-10-18T01:18:36.620Z,70.15
2022-10-18T01:18:46.878Z,70.05
2022-10-18T01:18:57.156Z,70.05
2022-10-18T01:19:07.425Z,70.05
2022-10-18T01:19:17.700Z,70.05
2022-10-18T01:19:27.962Z,70.05
2022-10-18T01:19:38.273Z,70.05
2022-10-18T01:19:48.518Z,70.05
2022-10-18T01:19:58.799Z,70.05
2022-10-18T01:20:09.063Z,70.05
2022-10-18T01:20:19.341Z,70.05
2022-10-18T01:20:29.600Z,70.05
2022-10-18T01:20:39.874Z,70.05
2022-10-18T01:20:50.150Z,70.05
2022-10-18T01:21:00.438Z,70.05
2022-10-18T01:21:10.700Z,70.15
2022-10-18T01:21:20.974Z,70.15
2022-10-18T01:21:31.241Z,70.15
2022-10-18T01:21:41.512Z,70.15
2022-10-18T01:21:51.786Z,70.15
2022-10-18T01:22:02.059Z,70.15
2022-10-18T01:22:12.339Z,70.15
2022-10-18T01:22:22.623Z,70.15
2022-10-18T01:22:32.876Z,70.15
2022-10-18T01:22:43.169Z,70.15
2022-10-18T01:22:53.427Z,70.15
2022-10-18T01:23:03.755Z,70.15
2022-10-18T01:23:14.006Z,70.15
2022-10-18T01:23:24.258Z,70.15
2022-10-18T01:23:34.527Z,70.15
2022-10-18T01:23:44.814Z,70.05
2022-10-18T01:23:55.095Z,70.05
2022-10-18T01:24:05.362Z,70.05
2022-10-18T01:24:15.637Z,70.05
2022-10-18T01:24:25.901Z,70.05
2022-10-18T01:24:36.197Z,70.05
2022-10-18T01:24:46.440Z,70.05
2022-10-18T01:24:56.739Z,70.05
2022-10-18T01:25:07.017Z,70.05
2022-10-18T01:25:17.274Z,70.05
2022-10-18T01:25:27.543Z,70.05
2022-10-18T01:25:37.826Z,69.95
2022-10-18T01:25:48.086Z,70.05
2022-10-18T01:25:58.367Z,70.05
2022-10-18T01:26:08.664Z,70.05
2022-10-18T01:26:18.937Z,70.05
2022-10-18T01:26:29.191Z,70.05
2022-10-18T01:26:39.466Z,70.05
2022-10-18T01:26:49.762Z,70.05
2022-10-18T01:27:00.003Z,70.05
2022-10-18T01:27:10.276Z,70.05
2022-10-18T01:27:20.542Z,70.05
2022-10-18T01:27:31.096Z,70.05
2022-10-18T01:27:41.045Z,70.05
2022-10-18T01:27:51.313Z,70.05
2022-10-18T01:28:01.583Z,70.05
2022-10-18T01:28:11.872Z,70.05
2022-10-18T01:28:22.132Z,70.05
2022-10-18T01:28:32.470Z,70.05
2022-10-18T01:28:42.803Z,70.05
2022-10-18T01:28:53.115Z,70.05
2022-10-18T01:29:03.467Z,70.05
2022-10-18T01:29:13.733Z,70.05
2022-10-18T01:29:24.002Z,70.05
2022-10-18T01:29:34.277Z,70.05
2022-10-18T01:29:44.546Z,70.05
2022-10-18T01:29:54.827Z,70.05
2022-10-18T01:30:05.095Z,70.05
2022-10-18T01:30:15.379Z,70.05
2022-10-18T01:30:25.642Z,70.05
2022-10-18T01:30:35.939Z,70.05
2022-10-18T01:30:46.209Z,70.05
2022-10-18T01:30:56.473Z,70.05
2022-10-18T01:31:06.765Z,70.05
2022-10-18T01:31:17.056Z,70.05
2022-10-18T01:31:27.313Z,70.05
2022-10-18T01:31:37.590Z,70.05
2022-10-18T01:31:47.878Z,70.05
2022-10-18T01:31:59.534Z,70.05
2022-10-18T01:32:08.423Z,70.05
2022-10-18T01:32:18.692Z,70.05
2022-10-18T01:32:28.962Z,70.05
2022-10-18T01:32:39.242Z,70.05
2022-10-18T01:32:49.536Z,70.05
2022-10-18T01:32:59.788Z,70.05
2022-10-18T01:33:10.046Z,70.05
2022-10-18T01:33:20.327Z,70.05
2022-10-18T01:33:30.591Z,70.05
2022-10-18T01:33:40.871Z,70.05
2022-10-18T01:33:51.256Z,70.05
2022-10-18T01:34:11.848Z,70.05
2022-10-18T01:34:22.123Z,70.18
2022-10-18T01:34:32.388Z,70.15
2022-10-18T01:34:42.664Z,70.15
2022-10-18T01:34:52.943Z,70.05
2022-10-18T01:35:03.213Z,70.05
2022-10-18T01:35:13.481Z,70.09
2022-10-18T01:35:23.774Z,70.15
2022-10-18T01:35:34.055Z,70.15
2022-10-18T01:35:44.319Z,70.15
2022-10-18T01:35:54.590Z,70.18
2022-10-18T01:36:04.862Z,70.25
2022-10-18T01:36:15.147Z,70.18
2022-10-18T01:36:25.424Z,70.15
2022-10-18T01:36:35.698Z,70.15
2022-10-18T01:36:45.968Z,70.15
2022-10-18T01:36:56.238Z,70.18
2022-10-18T01:37:06.512Z,70.15
2022-10-18T01:37:16.784Z,70.15
2022-10-18T01:37:27.049Z,70.15
2022-10-18T01:37:37.332Z,70.15
2022-10-18T01:37:47.593Z,70.15
2022-10-18T01:37:57.861Z,70.18
2022-10-18T01:38:08.130Z,70.15
2022-10-18T01:38:18.398Z,70.18
2022-10-18T01:38:28.683Z,70.15
2022-10-18T01:38:38.974Z,70.18
2022-10-18T01:38:49.245Z,70.18
2022-10-18T01:38:59.503Z,70.18
2022-10-18T01:39:09.774Z,70.18
2022-10-18T01:39:20.049Z,70.05
2022-10-18T01:39:30.340Z,70.05
2022-10-18T01:39:40.612Z,70.09
2022-10-18T01:39:50.881Z,70.09
2022-10-18T01:40:01.149Z,70.09
2022-10-18T01:40:11.445Z,70.09
2022-10-18T01:40:21.688Z,70.09
2022-10-18T01:40:31.959Z,70.09
2022-10-18T01:40:42.230Z,70.09
2022-10-18T01:40:52.499Z,70.09
2022-10-18T01:41:02.793Z,70.09
2022-10-18T01:41:15.681Z,70.09
2022-10-18T01:41:23.288Z,70.09
2022-10-18T01:41:33.558Z,70.09
2022-10-18T01:41:43.845Z,70.09
2022-10-18T01:41:54.111Z,70.09
2022-10-18T01:42:04.399Z,70.09
2022-10-18T01:42:14.647Z,70.18
2022-10-18T01:42:24.933Z,70.18
2022-10-18T01:42:35.192Z,70.09
2022-10-18T01:42:45.461Z,70.09
2022-10-18T01:42:55.827Z,70.09
2022-10-18T01:43:16.422Z,70.09
2022-10-18T01:43:26.704Z,70.09
2022-10-18T01:43:36.972Z,70.09
2022-10-18T01:43:47.260Z,70.09
2022-10-18T01:43:57.515Z,70.09
2022-10-18T01:44:07.838Z,70.09
2022-10-18T01:44:18.112Z,70.09
2022-10-18T01:44:28.377Z,70.09
2022-10-18T01:44:38.631Z,70.09
2022-10-18T01:44:48.892Z,70.09
2022-10-18T01:44:59.192Z,70.09
2022-10-18T01:45:09.437Z,70.18
2022-10-18T01:45:19.729Z,70.18
2022-10-18T01:45:30.008Z,70.18
2022-10-18T01:45:40.270Z,70.18
2022-10-18T01:45:50.556Z,70.18
2022-10-18T01:46:00.844Z,70.18
2022-10-18T01:46:11.105Z,70.18
2022-10-18T01:46:21.389Z,70.18
2022-10-18T01:46:31.661Z,70.18
2022-10-18T01:46:41.956Z,70.18
2022-10-18T01:46:52.201Z,70.18
2022-10-18T01:47:02.475Z,70.18
2022-10-18T01:47:12.744Z,70.18
2022-10-18T01:47:23.035Z,70.18
2022-10-18T01:47:33.765Z,70.18
2022-10-18T01:47:43.549Z,70.18
2022-10-18T01:47:53.817Z,70.18
2022-10-18T01:48:04.090Z,70.18
2022-10-18T01:48:14.379Z,70.18
2022-10-18T01:48:24.644Z,70.18
2022-10-18T01:48:34.920Z,70.18
2022-10-18T01:48:45.184Z,70.29
2022-10-18T01:48:55.452Z,70.29
2022-10-18T01:49:05.724Z,70.18
2022-10-18T01:49:15.992Z,70.18
2022-10-18T01:49:26.264Z,70.18
2022-10-18T01:49:36.532Z,70.18
2022-10-18T01:49:46.829Z,70.18
2022-10-18T01:49:57.138Z,70.18
2022-10-18T01:50:07.437Z,70.18
2022-10-18T01:50:17.681Z,70.18
2022-10-18T01:50:27.953Z,70.18
2022-10-18T01:50:38.220Z,70.18
2022-10-18T01:50:48.493Z,70.18
2022-10-18T01:50:58.764Z,70.18
2022-10-18T01:51:09.042Z,70.18
2022-10-18T01:51:19.320Z,70.18
2022-10-18T01:51:29.605Z,70.29
2022-10-18T01:51:39.865Z,70.29
2022-10-18T01:51:50.132Z,70.29
2022-10-18T01:52:00.474Z,70.29
2022-10-18T01:52:10.723Z,70.29
2022-10-18T01:52:20.994Z,70.29
2022-10-18T01:52:31.619Z,70.29
2022-10-18T01:52:41.506Z,70.29
2022-10-18T01:52:51.789Z,70.29
2022-10-18T01:53:02.033Z,70.29
2022-10-18T01:53:12.308Z,70.29
2022-10-18T01:53:22.595Z,70.29
2022-10-18T01:53:32.858Z,70.29
2022-10-18T01:53:43.112Z,70.29
2022-10-18T01:53:53.390Z,70.29
2022-10-18T01:54:03.660Z,70.29
2022-10-18T01:54:13.936Z,70.29
2022-10-18T01:54:24.214Z,70.29
2022-10-18T01:54:34.483Z,70.29
2022-10-18T01:54:44.752Z,70.29
2022-10-18T01:54:55.028Z,70.29
2022-10-18T01:55:05.296Z,70.29
2022-10-18T01:55:15.581Z,70.29
2022-10-18T01:55:25.877Z,70.39
2022-10-18T01:55:36.160Z,70.39
2022-10-18T01:55:46.427Z,70.39
2022-10-18T01:55:56.691Z,70.39
2022-10-18T01:56:06.960Z,70.39
2022-10-18T01:56:17.250Z,70.49
2022-10-18T01:56:27.525Z,70.49
2022-10-18T01:56:37.797Z,70.49
2022-10-18T01:56:48.077Z,70.39
2022-10-18T01:56:58.307Z,70.39
2022-10-18T01:57:08.573Z,70.49
2022-10-18T01:57:18.859Z,70.49
2022-10-18T01:57:29.144Z,70.49
2022-10-18T01:57:39.391Z,70.49
2022-10-18T01:57:49.676Z,70.49
2022-10-18T01:57:59.947Z,70.49
2022-10-18T01:58:10.213Z,70.49
2022-10-18T01:58:20.483Z,70.49
2022-10-18T01:58:30.749Z,70.49
2022-10-18T01:58:41.015Z,70.49
2022-10-18T01:58:51.324Z,70.49
2022-10-18T01:59:01.575Z,70.49
2022-10-18T01:59:11.848Z,70.49
2022-10-18T01:59:22.113Z,70.49
2022-10-18T01:59:32.388Z,70.49
2022-10-18T01:59:42.653Z,70.49
2022-10-18T01:59:52.932Z,70.49
2022-10-18T02:00:03.222Z,70.49
2022-10-18T02:00:13.477Z,70.49
2022-10-18T02:00:23.741Z,70.49
2022-10-18T02:00:34.026Z,70.49
2022-10-18T02:00:44.338Z,70.49
2022-10-18T02:00:54.588Z,70.49
2022-10-18T02:01:04.926Z,70.39
2022-10-18T02:01:15.170Z,70.39
2022-10-18T02:01:25.439Z,70.39
2022-10-18T02:01:35.729Z,70.49
2022-10-18T02:01:46.004Z,70.49
2022-10-18T02:01:56.270Z,70.49
2022-10-18T02:02:06.561Z,70.49
2022-10-18T02:02:16.822Z,70.49
2022-10-18T02:02:27.110Z,70.49
2022-10-18T02:02:37.394Z,70.59
2022-10-18T02:02:47.683Z,70.59
2022-10-18T02:02:57.966Z,70.59
2022-10-18T02:03:08.238Z,70.59
2022-10-18T02:03:18.513Z,70.59
2022-10-18T02:03:28.780Z,70.59
2022-10-18T02:03:39.051Z,70.59
2022-10-18T02:03:49.317Z,70.59
2022-10-18T02:03:59.589Z,70.69
2022-10-18T02:04:09.862Z,70.69
2022-10-18T02:04:20.160Z,70.69
2022-10-18T02:04:30.413Z,70.69
2022-10-18T02:04:40.700Z,70.69
2022-10-18T02:04:50.955Z,70.69
2022-10-18T02:05:01.225Z,70.69
2022-10-18T02:05:11.503Z,70.69
2022-10-18T02:05:21.791Z,70.69
2022-10-18T02:05:32.054Z,70.69
2022-10-18T02:05:42.324Z,70.69
2022-10-18T02:05:52.591Z,70.69
2022-10-18T02:06:02.858Z,70.69
2022-10-18T02:06:13.154Z,70.69
2022-10-18T02:06:23.416Z,70.79
2022-10-18T02:06:33.689Z,70.79
2022-10-18T02:06:43.977Z,70.79
2022-10-18T02:06:54.247Z,70.79
2022-10-18T02:07:04.522Z,70.79
2022-10-18T02:07:14.792Z,70.79
2022-10-18T02:07:25.061Z,70.79
2022-10-18T02:07:35.346Z,70.79
2022-10-18T02:07:51.903Z,70.89
2022-10-18T02:08:12.042Z,70.89
2022-10-18T02:08:12.658Z,71.00
2022-10-18T02:08:24.020Z,71.00
2022-10-18T02:08:27.887Z,71.00
2022-10-18T02:08:37.298Z,71.00
2022-10-18T02:08:47.578Z,71.00
2022-10-18T02:08:57.841Z,71.00
2022-10-18T02:09:08.141Z,71.09
2022-10-18T02:09:18.398Z,71.09
2022-10-18T02:09:28.677Z,71.09
2022-10-18T02:09:38.935Z,71.09
2022-10-18T02:09:49.228Z,71.09
2022-10-18T02:09:59.532Z,71.09
2022-10-18T02:10:09.855Z,71.09
2022-10-18T02:10:20.103Z,71.09
2022-10-18T02:10:30.377Z,71.09
2022-10-18T02:10:40.642Z,71.09
2022-10-18T02:10:50.927Z,71.09
2022-10-18T02:11:01.200Z,71.09
2022-10-18T02:11:11.502Z,71.20
2022-10-18T02:11:21.770Z,71.20
2022-10-18T02:11:32.044Z,71.20
2022-10-18T02:11:42.307Z,71.30
2022-10-18T02:11:52.577Z,71.20
2022-10-18T02:12:02.848Z,71.20
2022-10-18T02:12:13.132Z,71.30
2022-10-18T02:12:23.396Z,71.30
2022-10-18T02:12:33.829Z,71.30
2022-10-18T02:12:43.943Z,71.30
2022-10-18T02:12:54.223Z,71.30
2022-10-18T02:13:04.491Z,71.30